createdAt,value
2023-05-22T00:01:56.691Z,96131.94
2023-05-22T00:04:24.668Z,96129.81
2023-05-22T00:06:53.243Z,96124.75
2023-05-22T00:09:20.944Z,96129.59
2023-05-22T00:11:48.874Z,96126.94
2023-05-22T00:14:18.218Z,96134.53
2023-05-22T00:16:46.254Z,96138.84
2023-05-22T00:19:19.310Z,96142.16
2023-05-22T00:21:47.141Z,96144.84
2023-05-22T00:24:14.992Z,96138.94
2023-05-22T00:26:42.770Z,96143.78
2023-05-22T00:29:10.907Z,96142.19
2023-05-22T00:31:40.066Z,96130.38
2023-05-22T00:34:08.370Z,96144.91
2023-05-22T00:36:36.199Z,96127.13
2023-05-22T00:39:04.060Z,96136.28
2023-05-22T00:41:33.939Z,96136.31
2023-05-22T00:44:03.059Z,96130.97
2023-05-22T00:46:31.242Z,96146.03
2023-05-22T00:49:00.703Z,96140.41
2023-05-22T00:51:29.035Z,96146.84
2023-05-22T00:53:57.339Z,96147.13
2023-05-22T00:56:27.024Z,96148.75
2023-05-22T00:58:55.134Z,96145.50
2023-05-22T01:01:23.137Z,96148.75
2023-05-22T01:03:53.899Z,96154.13
2023-05-22T01:06:23.318Z,96151.97
2023-05-22T01:08:51.121Z,96142.50
2023-05-22T01:11:26.543Z,96153.28
2023-05-22T01:14:02.368Z,96150.31
2023-05-22T01:16:38.425Z,96146.00
2023-05-22T01:19:18.329Z,96148.16
2023-05-22T01:21:58.757Z,96141.94
2023-05-22T01:24:54.216Z,96142.50
2023-05-22T01:27:44.032Z,96133.03
2023-05-22T01:30:53.448Z,96148.66
2023-05-22T01:33:26.097Z,96134.63
2023-05-22T01:35:58.555Z,96155.88
2023-05-22T01:38:26.913Z,96150.72
2023-05-22T01:40:55.999Z,96161.53
2023-05-22T01:43:23.838Z,96159.13
2023-05-22T01:45:51.841Z,96163.38
2023-05-22T01:48:19.676Z,96163.84
2023-05-22T01:50:55.128Z,96162.53
2023-05-22T01:53:31.688Z,96169.75
2023-05-22T01:56:08.513Z,96163.59
2023-05-22T01:58:47.623Z,96163.25
2023-05-22T02:01:18.529Z,96161.84
2023-05-22T02:03:48.363Z,96162.13
2023-05-22T02:06:18.525Z,96169.31
2023-05-22T02:08:47.132Z,96173.06
2023-05-22T02:11:17.580Z,96168.22
2023-05-22T02:13:45.444Z,96170.94
2023-05-22T02:16:14.491Z,96167.78
2023-05-22T02:18:43.724Z,96162.66
2023-05-22T02:21:11.828Z,96164.75
2023-05-22T02:23:41.198Z,96152.09
2023-05-22T02:26:09.401Z,96156.34
2023-05-22T02:28:37.936Z,96164.47
2023-05-22T02:31:05.867Z,96162.09
2023-05-22T02:33:33.776Z,96168.28
2023-05-22T02:36:01.577Z,96156.94
2023-05-22T02:38:29.359Z,96155.34
2023-05-22T02:40:58.579Z,96159.69
2023-05-22T02:43:26.351Z,96159.97
2023-05-22T02:45:54.431Z,96158.63
2023-05-22T02:48:22.615Z,96148.38
2023-05-22T02:50:50.428Z,96160.69
2023-05-22T02:53:18.219Z,96160.09
2023-05-22T02:55:46.012Z,96160.66
2023-05-22T02:58:15.378Z,96167.59
2023-05-22T03:00:43.308Z,96166.69
2023-05-22T03:03:13.936Z,96165.63
2023-05-22T03:05:43.329Z,96165.34
2023-05-22T03:08:11.189Z,96165.97
2023-05-22T03:10:39.758Z,96157.88
2023-05-22T03:13:08.061Z,96164.28
2023-05-22T03:15:37.221Z,96172.97
2023-05-22T03:18:05.171Z,96176.91
2023-05-22T03:20:34.023Z,96173.38
2023-05-22T03:23:01.794Z,96167.78
2023-05-22T03:25:29.594Z,96166.91
2023-05-22T03:27:57.726Z,96159.94
2023-05-22T03:30:25.524Z,96166.75
2023-05-22T03:32:54.710Z,96167.44
2023-05-22T03:35:23.308Z,96166.31
2023-05-22T03:37:51.038Z,96166.88
2023-05-22T03:40:19.175Z,96164.44
2023-05-22T03:42:47.102Z,96166.88
2023-05-22T03:45:14.930Z,96163.97
2023-05-22T03:47:42.831Z,96155.91
2023-05-22T03:50:12.420Z,96157.78
2023-05-22T03:52:40.204Z,96176.34
2023-05-22T03:55:09.461Z,96161.78
2023-05-22T03:57:37.222Z,96170.44
2023-05-22T04:00:10.106Z,96179.03
2023-05-22T04:02:39.904Z,96177.19
2023-05-22T04:05:09.617Z,96179.91
2023-05-22T04:07:39.007Z,96183.72
2023-05-22T04:10:07.706Z,96188.06
2023-05-22T04:12:35.961Z,96187.53
2023-05-22T04:15:03.906Z,96181.97
2023-05-22T04:17:35.078Z,96191.88
2023-05-22T04:20:05.338Z,96193.47
2023-05-22T04:22:33.187Z,96192.66
2023-05-22T04:25:02.774Z,96196.25
2023-05-22T04:27:30.513Z,96202.78
2023-05-22T04:30:00.031Z,96202.00
2023-05-22T04:32:29.616Z,96184.53
2023-05-22T04:34:58.429Z,96188.97
2023-05-22T04:37:28.746Z,96194.13
2023-05-22T04:39:58.287Z,96192.78
2023-05-22T04:42:28.235Z,96199.22
2023-05-22T04:44:58.166Z,96201.41
2023-05-22T04:47:26.282Z,96208.94
2023-05-22T04:49:54.000Z,96209.47
2023-05-22T04:52:22.385Z,96214.34
2023-05-22T04:54:52.157Z,96203.34
2023-05-22T04:57:21.279Z,96212.81
2023-05-22T04:59:50.442Z,96213.88
2023-05-22T05:02:18.257Z,96212.25
2023-05-22T05:04:47.432Z,96216.03
2023-05-22T05:07:18.708Z,96215.00
2023-05-22T05:09:46.858Z,96216.63
2023-05-22T05:12:14.660Z,96217.16
2023-05-22T05:14:42.515Z,96215.56
2023-05-22T05:17:11.657Z,96211.22
2023-05-22T05:19:39.830Z,96208.00
2023-05-22T05:22:07.745Z,96218.78
2023-05-22T05:24:35.657Z,96225.50
2023-05-22T05:27:03.544Z,96219.53
2023-05-22T05:29:31.358Z,96210.09
2023-05-22T05:31:59.146Z,96222.53
2023-05-22T05:34:28.428Z,96221.94
2023-05-22T05:36:57.684Z,96219.75
2023-05-22T05:39:25.463Z,96216.28
2023-05-22T05:41:53.255Z,96215.88
2023-05-22T05:44:21.699Z,96206.56
2023-05-22T05:46:49.943Z,96206.94
2023-05-22T05:49:18.174Z,96207.69
2023-05-22T05:51:47.262Z,96210.47
2023-05-22T05:54:15.061Z,96214.81
2023-05-22T05:56:42.898Z,96207.09
2023-05-22T05:59:10.907Z,96210.13
2023-05-22T06:01:39.811Z,96210.34
2023-05-22T06:04:09.091Z,96220.13
2023-05-22T06:06:37.043Z,96221.66
2023-05-22T06:09:06.756Z,96208.91
2023-05-22T06:11:34.715Z,96216.44
2023-05-22T06:14:04.011Z,96222.25
2023-05-22T06:16:32.049Z,96219.00
2023-05-22T06:19:00.760Z,96220.38
2023-05-22T06:21:28.662Z,96225.97
2023-05-22T06:23:56.578Z,96227.69
2023-05-22T06:26:26.167Z,96225.34
2023-05-22T06:28:54.655Z,96229.59
2023-05-22T06:31:24.505Z,96229.59
2023-05-22T06:33:52.558Z,96230.53
2023-05-22T06:36:20.466Z,96225.00
2023-05-22T06:38:49.636Z,96219.56
2023-05-22T06:41:17.448Z,96220.78
2023-05-22T06:43:47.214Z,96213.06
2023-05-22T06:46:15.100Z,96214.97
2023-05-22T06:48:42.827Z,96213.34
2023-05-22T06:51:11.754Z,96211.75
2023-05-22T06:53:39.665Z,96212.75
2023-05-22T06:56:07.829Z,96215.34
2023-05-22T06:58:35.577Z,96213.56
2023-05-22T07:01:05.119Z,96216.16
2023-05-22T07:03:33.108Z,96216.00
2023-05-22T07:06:00.960Z,96216.81
2023-05-22T07:08:30.578Z,96222.50
2023-05-22T07:10:58.743Z,96225.31
2023-05-22T07:13:26.576Z,96223.59
2023-05-22T07:15:54.387Z,96220.81
2023-05-22T07:18:23.751Z,96222.56
2023-05-22T07:20:51.586Z,96218.09
2023-05-22T07:23:19.625Z,96219.56
2023-05-22T07:25:47.803Z,96218.84
2023-05-22T07:28:15.902Z,96217.97
2023-05-22T07:30:43.752Z,96211.63
2023-05-22T07:33:11.706Z,96214.97
2023-05-22T07:35:41.016Z,96220.56
2023-05-22T07:38:08.813Z,96210.31
2023-05-22T07:40:36.825Z,96216.19
2023-05-22T07:43:04.738Z,96211.59
2023-05-22T07:45:32.642Z,96213.19
2023-05-22T07:48:01.965Z,96216.53
2023-05-22T07:50:30.777Z,96218.41
2023-05-22T07:52:59.945Z,96212.06
2023-05-22T07:55:30.370Z,96206.47
2023-05-22T07:57:58.165Z,96209.53
2023-05-22T08:00:25.990Z,96201.47
2023-05-22T08:02:54.183Z,96200.09
2023-05-22T08:05:22.073Z,96200.31
2023-05-22T08:07:50.005Z,96203.28
2023-05-22T08:10:20.324Z,96198.63
2023-05-22T08:12:48.195Z,96194.81
2023-05-22T08:15:16.066Z,96197.34
2023-05-22T08:17:43.904Z,96191.84
2023-05-22T08:20:13.168Z,96197.13
2023-05-22T08:22:41.399Z,96190.63
2023-05-22T08:25:10.293Z,96195.47
2023-05-22T08:27:39.460Z,96196.13
2023-05-22T08:30:08.970Z,96191.09
2023-05-22T08:32:36.765Z,96191.78
2023-05-22T08:35:05.231Z,96176.56
2023-05-22T08:37:33.024Z,96185.19
2023-05-22T08:40:00.987Z,96184.31
2023-05-22T08:42:28.861Z,96181.28
2023-05-22T08:45:01.005Z,96178.19
2023-05-22T08:47:29.747Z,96186.94
2023-05-22T08:49:59.585Z,96172.47
2023-05-22T08:52:36.358Z,96186.59
2023-05-22T08:55:06.129Z,96179.06
2023-05-22T08:57:35.137Z,96189.63
2023-05-22T09:00:06.052Z,96178.22
2023-05-22T09:02:34.657Z,96179.59
2023-05-22T09:05:05.381Z,96170.56
2023-05-22T09:07:33.250Z,96164.69
2023-05-22T09:10:01.177Z,96180.81
2023-05-22T09:12:29.280Z,96177.00
2023-05-22T09:14:58.763Z,96174.59
2023-05-22T09:17:28.303Z,96173.75
2023-05-22T09:19:56.526Z,96176.75
2023-05-22T09:22:24.572Z,96170.34
2023-05-22T09:24:52.726Z,96170.91
2023-05-22T09:27:25.041Z,96171.63
2023-05-22T09:29:54.658Z,96182.91
2023-05-22T09:32:24.503Z,96176.91
2023-05-22T09:34:53.776Z,96177.59
2023-05-22T09:37:21.628Z,96165.03
2023-05-22T09:39:51.475Z,96161.72
2023-05-22T09:42:19.577Z,96170.41
2023-05-22T09:44:49.884Z,96170.78
2023-05-22T09:47:17.838Z,96163.56
2023-05-22T09:49:46.907Z,96157.75
2023-05-22T09:52:18.151Z,96152.22
2023-05-22T09:54:48.513Z,96159.53
2023-05-22T09:57:19.459Z,96156.41
2023-05-22T09:59:54.018Z,96156.09
2023-05-22T10:02:23.954Z,96154.88
2023-05-22T10:04:53.051Z,96163.63
2023-05-22T10:07:23.984Z,96155.72
2023-05-22T10:09:55.959Z,96150.78
2023-05-22T10:12:25.210Z,96153.47
2023-05-22T10:14:54.946Z,96153.47
2023-05-22T10:17:23.053Z,96146.47
2023-05-22T10:19:51.746Z,96146.91
2023-05-22T10:22:22.585Z,96145.00
2023-05-22T10:24:52.503Z,96144.91
2023-05-22T10:27:20.377Z,96142.03
2023-05-22T10:29:54.180Z,96134.41
2023-05-22T10:32:30.654Z,96132.03
2023-05-22T10:35:07.100Z,96133.66
2023-05-22T10:37:46.708Z,96126.78
2023-05-22T10:40:20.027Z,96125.19
2023-05-22T10:42:48.538Z,96123.53
2023-05-22T10:45:17.725Z,96114.59
2023-05-22T10:47:45.835Z,96122.63
2023-05-22T10:50:13.778Z,96117.75
2023-05-22T10:52:41.603Z,96117.38
2023-05-22T10:55:11.648Z,96122.59
2023-05-22T10:57:41.243Z,96108.13
2023-05-22T11:00:11.429Z,96104.44
2023-05-22T11:02:44.026Z,96099.72
2023-05-22T11:05:35.209Z,96099.09
2023-05-22T11:08:47.285Z,96104.69
2023-05-22T11:11:15.523Z,96096.00
2023-05-22T11:13:44.741Z,96092.00
2023-05-22T11:16:12.664Z,96096.28
2023-05-22T11:18:40.640Z,96085.63
2023-05-22T11:21:11.306Z,96090.03
2023-05-22T11:23:39.124Z,96092.66
2023-05-22T11:26:20.320Z,96088.81
2023-05-22T11:28:53.542Z,96091.19
2023-05-22T11:31:23.994Z,96085.59
2023-05-22T11:33:51.698Z,96085.66
2023-05-22T11:36:20.091Z,96079.28
2023-05-22T11:38:47.899Z,96075.72
2023-05-22T11:41:17.181Z,96078.31
2023-05-22T11:43:45.222Z,96071.97
2023-05-22T11:46:15.318Z,96078.50
2023-05-22T11:48:43.738Z,96072.81
2023-05-22T11:51:11.725Z,96079.31
2023-05-22T11:53:39.616Z,96074.09
2023-05-22T11:56:08.449Z,96070.13
2023-05-22T11:58:36.169Z,96072.75
2023-05-22T12:01:05.638Z,96060.88
2023-05-22T12:03:34.883Z,96070.53
2023-05-22T12:06:03.641Z,96074.13
2023-05-22T12:08:31.685Z,96067.75
2023-05-22T12:10:59.468Z,96068.69
2023-05-22T12:13:29.864Z,96067.81
2023-05-22T12:16:00.332Z,96071.00
2023-05-22T12:18:28.703Z,96064.91
2023-05-22T12:20:57.987Z,96040.56
2023-05-22T12:23:26.354Z,96052.72
2023-05-22T12:26:01.548Z,96058.63
2023-05-22T12:28:29.403Z,96061.03
2023-05-22T12:30:57.563Z,96063.41
2023-05-22T12:33:29.160Z,96052.25
2023-05-22T12:35:59.354Z,96059.09
2023-05-22T12:38:27.902Z,96052.66
2023-05-22T12:40:56.645Z,96052.19
2023-05-22T12:43:25.283Z,96041.56
2023-05-22T12:45:53.286Z,96050.00
2023-05-22T12:48:21.121Z,96040.78
2023-05-22T12:50:48.923Z,96044.94
2023-05-22T12:53:18.129Z,96041.84
2023-05-22T12:55:45.934Z,96029.56
2023-05-22T12:58:13.737Z,96039.53
2023-05-22T13:00:41.800Z,96041.13
2023-05-22T13:03:09.867Z,96041.81
2023-05-22T13:05:37.967Z,96034.16
2023-05-22T13:08:05.981Z,96036.38
2023-05-22T13:10:35.455Z,96028.09
2023-05-22T13:13:03.249Z,96035.19
2023-05-22T13:15:32.496Z,96024.03
2023-05-22T13:18:00.474Z,96024.41
2023-05-22T13:20:28.277Z,96029.56
2023-05-22T13:22:56.024Z,96018.09
2023-05-22T13:25:24.042Z,96019.00
2023-05-22T13:27:53.218Z,96019.56
2023-05-22T13:30:21.109Z,96014.16
2023-05-22T13:32:48.880Z,96013.22
2023-05-22T13:35:16.776Z,96013.22
2023-05-22T13:37:44.660Z,96019.59
2023-05-22T13:40:12.808Z,96006.50
2023-05-22T13:42:41.193Z,95999.06
2023-05-22T13:45:11.843Z,95998.91
2023-05-22T13:47:39.815Z,95994.22
2023-05-22T13:50:09.190Z,96003.78
2023-05-22T13:52:37.132Z,95992.34
2023-05-22T13:55:05.326Z,96002.28
2023-05-22T13:57:33.152Z,96009.63
2023-05-22T14:00:00.954Z,95998.28
2023-05-22T14:02:30.232Z,95994.75
2023-05-22T14:04:58.155Z,95988.75
2023-05-22T14:07:25.950Z,95987.03
2023-05-22T14:09:53.800Z,95985.28
2023-05-22T14:12:21.711Z,95984.72
2023-05-22T14:14:49.514Z,95988.16
2023-05-22T14:17:17.436Z,95983.22
2023-05-22T14:19:46.625Z,95984.28
2023-05-22T14:22:14.444Z,95974.53
2023-05-22T14:24:42.270Z,95975.44
2023-05-22T14:27:10.185Z,95983.28
2023-05-22T14:29:37.937Z,95973.56
2023-05-22T14:32:06.131Z,95967.56
2023-05-22T14:34:33.982Z,95966.81
2023-05-22T14:37:03.497Z,95969.00
2023-05-22T14:39:31.613Z,95962.50
2023-05-22T14:41:59.399Z,95958.78
2023-05-22T14:44:27.148Z,95954.38
2023-05-22T14:46:55.126Z,95961.53
2023-05-22T14:49:22.977Z,95960.88
2023-05-22T14:51:50.797Z,95955.50
2023-05-22T14:54:20.542Z,95967.59
2023-05-22T14:56:48.527Z,95958.03
2023-05-22T14:59:16.333Z,95974.78
2023-05-22T15:01:44.510Z,95968.56
2023-05-22T15:04:12.542Z,95971.09
2023-05-22T15:06:40.272Z,95969.94
2023-05-22T15:09:08.676Z,95960.00
2023-05-22T15:11:37.832Z,95965.06
2023-05-22T15:14:05.878Z,95963.41
2023-05-22T15:16:33.743Z,95970.25
2023-05-22T15:19:02.040Z,95968.66
2023-05-22T15:21:30.137Z,95970.19
2023-05-22T15:23:58.879Z,95969.63
2023-05-22T15:26:26.935Z,95964.50
2023-05-22T15:29:01.191Z,95965.28
2023-05-22T15:31:29.488Z,95967.00
2023-05-22T15:33:57.879Z,95962.66
2023-05-22T15:36:26.384Z,95969.63
2023-05-22T15:38:54.209Z,95965.16
2023-05-22T15:41:22.559Z,95966.88
2023-05-22T15:43:52.429Z,95963.13
2023-05-22T15:46:21.992Z,95954.03
2023-05-22T15:48:50.068Z,95958.91
2023-05-22T15:51:17.926Z,95958.72
2023-05-22T15:53:46.292Z,95963.16
2023-05-22T15:56:14.178Z,95968.91
2023-05-22T15:58:42.016Z,95968.50
2023-05-22T16:01:09.817Z,95958.00
2023-05-22T16:03:39.085Z,95965.81
2023-05-22T16:06:08.018Z,95966.94
2023-05-22T16:08:35.750Z,95968.53
2023-05-22T16:11:03.588Z,95968.94
2023-05-22T16:13:31.950Z,95967.97
2023-05-22T16:15:59.745Z,95958.31
2023-05-22T16:18:27.576Z,95956.09
2023-05-22T16:20:56.684Z,95955.97
2023-05-22T16:23:24.535Z,95956.66
2023-05-22T16:25:52.324Z,95959.63
2023-05-22T16:28:20.033Z,95962.91
2023-05-22T16:30:48.198Z,95969.78
2023-05-22T16:33:15.981Z,95954.69
2023-05-22T16:35:46.888Z,95967.50
2023-05-22T16:38:16.261Z,95969.88
2023-05-22T16:40:44.156Z,95970.22
2023-05-22T16:43:13.754Z,95971.78
2023-05-22T16:45:46.359Z,95975.63
2023-05-22T16:48:14.350Z,95974.06
2023-05-22T16:50:42.448Z,95926.50
2023-05-22T16:53:10.282Z,95981.34
2023-05-22T16:55:39.721Z,95983.56
2023-05-22T16:58:09.070Z,95986.97
2023-05-22T17:00:37.875Z,95992.53
2023-05-22T17:03:06.776Z,95993.00
2023-05-22T17:05:34.887Z,95989.72
2023-05-22T17:08:03.138Z,95996.72
2023-05-22T17:10:31.025Z,95994.75
2023-05-22T17:13:00.515Z,95997.00
2023-05-22T17:15:28.345Z,95992.34
2023-05-22T17:17:56.147Z,95998.47
2023-05-22T17:20:24.040Z,95989.41
2023-05-22T17:22:52.490Z,95999.25
2023-05-22T17:25:21.088Z,95986.38
2023-05-22T17:27:49.311Z,95985.72
2023-05-22T17:30:18.965Z,95991.47
2023-05-22T17:32:46.892Z,95994.66
2023-05-22T17:35:14.694Z,95994.41
2023-05-22T17:37:42.477Z,96004.91
2023-05-22T17:40:11.267Z,96000.03
2023-05-22T17:42:39.292Z,96006.47
2023-05-22T17:45:08.305Z,96013.97
2023-05-22T17:47:37.424Z,96018.00
2023-05-22T17:50:05.621Z,96028.72
2023-05-22T17:52:33.382Z,96034.81
2023-05-22T17:55:01.208Z,96033.22
2023-05-22T17:57:29.370Z,96025.59
2023-05-22T17:59:57.188Z,96041.69
2023-05-22T18:02:26.486Z,96045.59
2023-05-22T18:04:56.081Z,96043.19
2023-05-22T18:07:23.960Z,96049.44
2023-05-22T18:09:51.737Z,96049.75
2023-05-22T18:14:50.370Z,96059.59
2023-05-22T18:17:18.145Z,96059.66
2023-05-22T18:19:45.949Z,96057.84
2023-05-22T18:22:15.619Z,96063.75
2023-05-22T18:24:43.437Z,96070.81
2023-05-22T18:27:11.190Z,96082.75
2023-05-22T18:29:39.546Z,96088.41
2023-05-22T18:32:09.431Z,96083.44
2023-05-22T18:34:37.621Z,96088.09
2023-05-22T18:37:05.734Z,96089.91
2023-05-22T18:39:34.831Z,96103.41
2023-05-22T18:42:02.985Z,96095.19
2023-05-22T18:44:30.766Z,96094.41
2023-05-22T18:46:58.695Z,96097.31
2023-05-22T18:49:26.449Z,96088.00
2023-05-22T18:51:54.213Z,96085.75
2023-05-22T18:54:22.010Z,96088.16
2023-05-22T18:56:51.444Z,96084.91
2023-05-22T18:59:19.215Z,96091.28
2023-05-22T19:01:47.029Z,96094.59
2023-05-22T19:04:15.157Z,96083.53
2023-05-22T19:06:43.048Z,96097.19
2023-05-22T19:09:10.976Z,96098.88
2023-05-22T19:11:38.894Z,96101.66
2023-05-22T19:14:08.030Z,96109.47
2023-05-22T19:16:35.866Z,96114.28
2023-05-22T19:19:04.509Z,96121.75
2023-05-22T19:21:32.558Z,96123.91
2023-05-22T19:24:00.411Z,96119.47
2023-05-22T19:26:28.208Z,96125.91
2023-05-22T19:28:59.276Z,96121.63
2023-05-22T19:31:29.451Z,96134.59
2023-05-22T19:33:57.670Z,96131.69
2023-05-22T19:36:25.580Z,96130.88
2023-05-22T19:38:53.973Z,96130.44
2023-05-22T19:41:22.865Z,96135.84
2023-05-22T19:43:52.696Z,96131.91
2023-05-22T19:46:20.535Z,96140.72
2023-05-22T19:48:49.725Z,96146.19
2023-05-22T19:51:17.532Z,96130.09
2023-05-22T19:53:45.340Z,96137.09
2023-05-22T19:56:13.377Z,96145.28
2023-05-22T19:58:41.169Z,96153.38
2023-05-22T20:01:09.063Z,96155.06
2023-05-22T20:03:36.990Z,96158.66
2023-05-22T20:06:07.394Z,96165.44
2023-05-22T20:08:36.311Z,96160.53
2023-05-22T20:11:04.150Z,96171.22
2023-05-22T20:13:31.919Z,96159.75
2023-05-22T20:16:02.661Z,96172.13
2023-05-22T20:18:31.699Z,96172.00
2023-05-22T20:20:59.683Z,96174.53
2023-05-22T20:23:28.901Z,96171.38
2023-05-22T20:25:56.830Z,96179.44
2023-05-22T20:28:24.614Z,96182.16
2023-05-22T20:30:52.490Z,96186.31
2023-05-22T20:33:20.387Z,96178.66
2023-05-22T20:35:49.838Z,96186.19
2023-05-22T20:38:20.074Z,96183.69
2023-05-22T20:40:49.605Z,96179.75
2023-05-22T20:43:18.551Z,96193.09
2023-05-22T20:45:46.935Z,96194.63
2023-05-22T20:48:15.167Z,96189.84
2023-05-22T20:50:43.454Z,96198.75
2023-05-22T20:53:12.377Z,96204.75
2023-05-22T20:55:40.541Z,96198.88
2023-05-22T20:58:10.188Z,96198.50
2023-05-22T21:00:38.131Z,96201.09
2023-05-22T21:03:06.143Z,96201.75
2023-05-22T21:05:33.994Z,96212.09
2023-05-22T21:08:01.879Z,96199.66
2023-05-22T21:10:29.729Z,96209.59
2023-05-22T21:12:57.509Z,96213.34
2023-05-22T21:15:26.704Z,96220.31
2023-05-22T21:17:54.522Z,96221.78
2023-05-22T21:20:22.846Z,96223.31
2023-05-22T21:22:50.676Z,96223.06
2023-05-22T21:25:18.528Z,96229.94
2023-05-22T21:27:48.265Z,96230.09
2023-05-22T21:30:16.572Z,96237.72
2023-05-22T21:32:45.873Z,96244.09
2023-05-22T21:35:13.750Z,96252.78
2023-05-22T21:37:41.707Z,96255.91
2023-05-22T21:40:10.235Z,96252.88
2023-05-22T21:42:46.314Z,96271.34
2023-05-22T21:45:15.074Z,96266.31
2023-05-22T21:47:42.907Z,96274.47
2023-05-22T21:50:13.106Z,96249.69
2023-05-22T21:52:41.072Z,96278.63
2023-05-22T21:55:09.234Z,96278.16
2023-05-22T21:57:37.399Z,96281.09
2023-05-22T22:00:06.026Z,96282.31
2023-05-22T22:02:33.876Z,96283.91
2023-05-22T22:05:01.791Z,96284.50
2023-05-22T22:07:30.959Z,96283.91
2023-05-22T22:09:59.365Z,96282.97
2023-05-22T22:12:27.147Z,96286.03
2023-05-22T22:14:55.171Z,96293.59
2023-05-22T22:17:24.093Z,96291.69
2023-05-22T22:19:53.647Z,96285.78
2023-05-22T22:22:22.658Z,96281.56
2023-05-22T22:24:51.887Z,96285.56
2023-05-22T22:27:20.133Z,96278.00
2023-05-22T22:29:49.124Z,96280.94
2023-05-22T22:32:16.999Z,96287.56
2023-05-22T22:34:45.662Z,96280.84
2023-05-22T22:37:13.999Z,96283.28
2023-05-22T22:39:41.788Z,96274.78
2023-05-22T22:42:10.929Z,96278.88
2023-05-22T22:44:38.713Z,96275.44
2023-05-22T22:47:07.348Z,96275.13
2023-05-22T22:49:35.195Z,96278.41
2023-05-22T22:52:03.021Z,96283.38
2023-05-22T22:54:31.018Z,96288.00
2023-05-22T22:56:59.032Z,96287.75
2023-05-22T22:59:28.189Z,96286.09
2023-05-22T23:01:55.962Z,96293.59
2023-05-22T23:04:23.920Z,96296.88
2023-05-22T23:06:52.679Z,96293.44
2023-05-22T23:09:20.640Z,96299.22
2023-05-22T23:11:48.402Z,96297.53
2023-05-22T23:14:17.999Z,96293.66
2023-05-22T23:16:47.137Z,96291.19
2023-05-22T23:19:15.332Z,96281.22
2023-05-22T23:21:43.221Z,96292.22
2023-05-22T23:24:11.247Z,96291.91
2023-05-22T23:26:39.037Z,96286.53
2023-05-22T23:29:08.488Z,96279.19
2023-05-22T23:31:36.659Z,96284.91
2023-05-22T23:34:05.883Z,96291.41
2023-05-22T23:36:33.738Z,96287.59
2023-05-22T23:39:01.693Z,96284.38
2023-05-22T23:41:29.638Z,96277.63
2023-05-22T23:43:57.494Z,96276.84
2023-05-22T23:46:27.266Z,96288.22
2023-05-22T23:48:55.029Z,96300.09
2023-05-22T23:51:24.364Z,96295.75
2023-05-22T23:53:52.187Z,96292.56
2023-05-22T23:56:19.986Z,96300.59
2023-05-22T23:58:47.792Z,96295.25
